KTSP/TSP METAR and TAF weather

Enter ICAO airport designator
Station Type Date Time Source
KTSP METAR 2019/05/26 00:55 UTC NOAA

KTSP 260055Z AUTO 26013KT 10SM FEW039 13/09 A2989 RMK AO2


Station Type Date Time Source
KTSP Decoded METAR 2019/05/26 00:55 UTC NOAA

Station name not available
May 25, 2019 - 08:55 PM EDT / 2019.05.26 0055 UTC
Wind: from the W (260 degrees) at 15 MPH (13 KT):0
Visibility: 10 mile(s):0
Sky conditions: mostly clear
Temperature: 55 F (13 C)
Dew Point: 48 F (9 C)
Relative Humidity: 76%
Pressure (altimeter): 29.89 in. Hg (1012 hPa)
ob: KTSP 260055Z AUTO 26013KT 10SM FEW039 13/09 A2989 RMK AO2
cycle: 1

Station Type Date Time Source
KTSP TAF UTC NOAA

Error!

Example: see airport list